createdAt,value
2023-03-17T00:01:54.230Z,3.42
2023-03-17T00:04:24.657Z,3.70
2023-03-17T00:06:52.676Z,3.83
2023-03-17T00:09:20.263Z,3.85
2023-03-17T00:11:47.683Z,4.55
2023-03-17T00:14:14.553Z,3.80
2023-03-17T00:16:43.674Z,4.57
2023-03-17T00:19:18.258Z,4.35
2023-03-17T00:21:47.001Z,4.78
2023-03-17T00:24:15.166Z,3.58
2023-03-17T00:26:42.900Z,3.72
2023-03-17T00:29:09.846Z,4.10
2023-03-17T00:31:38.007Z,3.15
2023-03-17T00:34:06.088Z,3.92
2023-03-17T00:36:33.680Z,3.03
2023-03-17T00:39:00.609Z,4.18
2023-03-17T00:41:27.711Z,4.00
2023-03-17T00:43:54.315Z,4.28
2023-03-17T00:46:36.155Z,4.43
2023-03-17T00:49:21.084Z,3.72
2023-03-17T00:51:49.952Z,4.10
2023-03-17T00:54:18.044Z,3.60
2023-03-17T00:56:45.621Z,3.90
2023-03-17T00:59:21.161Z,4.45
2023-03-17T01:01:48.168Z,3.75
2023-03-17T01:04:15.634Z,4.13
2023-03-17T01:06:43.798Z,4.03
2023-03-17T01:09:14.774Z,3.58
2023-03-17T01:11:42.694Z,4.32
2023-03-17T01:14:11.332Z,4.07
2023-03-17T01:16:38.787Z,4.13
2023-03-17T01:19:05.860Z,4.13
2023-03-17T01:21:33.104Z,4.72
2023-03-17T01:24:00.339Z,4.57
2023-03-17T01:26:26.880Z,4.38
2023-03-17T01:28:54.483Z,5.65
2023-03-17T01:31:20.942Z,4.30
2023-03-17T01:33:47.442Z,4.40
2023-03-17T01:36:14.401Z,4.15
2023-03-17T01:38:41.808Z,4.43
2023-03-17T01:41:08.212Z,5.43
2023-03-17T01:43:34.776Z,4.45
2023-03-17T01:46:21.815Z,5.25
2023-03-17T01:49:15.672Z,4.82
2023-03-17T01:51:54.861Z,4.40
2023-03-17T01:54:27.021Z,3.70
2023-03-17T01:56:57.764Z,4.07
2023-03-17T01:59:31.542Z,4.57
2023-03-17T02:02:04.141Z,4.95
2023-03-17T02:04:31.636Z,4.15
2023-03-17T02:06:58.996Z,5.07
2023-03-17T02:09:27.884Z,4.45
2023-03-17T02:11:56.161Z,4.90
2023-03-17T02:14:23.650Z,4.43
2023-03-17T02:16:50.569Z,5.20
2023-03-17T02:19:17.641Z,5.03
2023-03-17T02:21:47.616Z,5.07
2023-03-17T02:24:32.498Z,4.63
2023-03-17T02:27:14.590Z,5.13
2023-03-17T02:29:42.449Z,4.00
2023-03-17T02:32:09.969Z,4.53
2023-03-17T02:34:37.264Z,5.18
2023-03-17T02:37:04.923Z,5.38
2023-03-17T02:39:32.059Z,4.15
2023-03-17T02:41:58.930Z,5.22
2023-03-17T02:44:26.497Z,5.47
2023-03-17T02:46:53.559Z,5.68
2023-03-17T02:49:20.639Z,5.10
2023-03-17T02:51:48.717Z,5.45
2023-03-17T02:54:15.335Z,5.45
2023-03-17T02:56:41.920Z,5.07
2023-03-17T02:59:09.073Z,4.53
2023-03-17T03:01:35.969Z,4.50
2023-03-17T03:04:03.944Z,4.78
2023-03-17T03:06:32.030Z,5.28
2023-03-17T03:08:58.926Z,6.05
2023-03-17T03:11:25.564Z,5.60
2023-03-17T03:13:52.532Z,5.78
2023-03-17T03:16:18.987Z,5.82
2023-03-17T03:18:45.681Z,6.07
2023-03-17T03:21:12.654Z,6.05
2023-03-17T03:23:39.138Z,6.50
2023-03-17T03:26:05.743Z,5.13
2023-03-17T03:28:32.562Z,5.88
2023-03-17T03:30:59.000Z,7.00
2023-03-17T03:33:25.554Z,5.63
2023-03-17T03:35:52.334Z,5.10
2023-03-17T03:38:19.168Z,5.00
2023-03-17T03:40:45.789Z,5.03
2023-03-17T03:43:22.749Z,5.97
2023-03-17T03:45:50.717Z,4.95
2023-03-17T03:48:17.708Z,4.50
2023-03-17T03:50:44.404Z,5.03
2023-03-17T03:53:10.814Z,5.82
2023-03-17T03:55:37.842Z,5.80
2023-03-17T03:58:04.349Z,6.18
2023-03-17T04:00:30.935Z,5.95
2023-03-17T04:02:59.497Z,5.80
2023-03-17T04:05:26.080Z,5.60
2023-03-17T04:07:52.897Z,5.97
2023-03-17T04:10:19.660Z,5.93
2023-03-17T04:12:46.713Z,5.82
2023-03-17T04:15:17.864Z,5.43
2023-03-17T04:17:44.824Z,5.45
2023-03-17T04:20:13.216Z,5.47
2023-03-17T04:22:41.684Z,5.55
2023-03-17T04:25:10.900Z,5.93
2023-03-17T04:27:37.927Z,5.03
2023-03-17T04:30:05.385Z,6.05
2023-03-17T04:32:32.422Z,5.70
2023-03-17T04:34:58.994Z,5.97
2023-03-17T04:37:25.703Z,6.25
2023-03-17T04:39:52.800Z,5.30
2023-03-17T04:42:19.252Z,5.63
2023-03-17T04:44:46.073Z,5.78
2023-03-17T04:47:12.961Z,5.38
2023-03-17T04:49:39.514Z,5.85
2023-03-17T04:52:06.748Z,6.20
2023-03-17T04:54:33.665Z,5.68
2023-03-17T04:57:00.697Z,5.80
2023-03-17T04:59:27.311Z,5.57
2023-03-17T05:01:54.163Z,5.35
2023-03-17T05:04:31.076Z,4.85
2023-03-17T05:06:58.268Z,5.68
2023-03-17T05:09:27.020Z,5.18
2023-03-17T05:11:53.464Z,5.35
2023-03-17T05:14:20.437Z,5.38
2023-03-17T05:16:48.687Z,5.90
2023-03-17T05:19:16.335Z,5.30
2023-03-17T05:21:42.828Z,5.57
2023-03-17T05:24:10.169Z,5.38
2023-03-17T05:26:36.604Z,5.72
2023-03-17T05:29:03.352Z,4.47
2023-03-17T05:31:31.470Z,5.72
2023-03-17T05:33:58.053Z,5.10
2023-03-17T05:36:24.963Z,5.20
2023-03-17T05:38:52.671Z,5.85
2023-03-17T05:41:19.427Z,5.93
2023-03-17T05:43:46.095Z,5.72
2023-03-17T05:46:13.025Z,5.65
2023-03-17T05:48:39.509Z,5.95
2023-03-17T05:51:06.588Z,5.55
2023-03-17T05:53:33.372Z,5.78
2023-03-17T05:55:59.775Z,5.60
2023-03-17T05:58:26.769Z,6.57
2023-03-17T06:00:53.593Z,5.63
2023-03-17T06:03:21.323Z,5.75
2023-03-17T06:05:48.316Z,5.60
2023-03-17T06:08:15.360Z,6.45
2023-03-17T06:10:43.004Z,5.80
2023-03-17T06:13:10.071Z,6.22
2023-03-17T06:15:36.957Z,6.28
2023-03-17T06:18:05.172Z,5.22
2023-03-17T06:20:33.599Z,6.82
2023-03-17T06:23:04.962Z,5.68
2023-03-17T06:25:32.629Z,6.10
2023-03-17T06:28:02.910Z,5.35
2023-03-17T06:30:31.180Z,5.10
2023-03-17T06:32:57.697Z,5.63
2023-03-17T06:35:25.155Z,7.15
2023-03-17T06:37:52.410Z,5.32
2023-03-17T06:40:18.978Z,6.38
2023-03-17T06:42:45.998Z,6.13
2023-03-17T06:45:12.933Z,6.90
2023-03-17T06:47:39.822Z,8.95
2023-03-17T06:50:10.014Z,11.05
2023-03-17T06:52:38.204Z,12.50
2023-03-17T06:55:06.222Z,15.05
2023-03-17T06:57:33.191Z,10.15
2023-03-17T06:59:59.727Z,5.45
2023-03-17T07:02:27.118Z,5.80
2023-03-17T07:04:53.733Z,5.05
2023-03-17T07:07:21.018Z,5.00
2023-03-17T07:09:48.298Z,5.55
2023-03-17T07:12:14.764Z,5.38
2023-03-17T07:14:41.636Z,5.18
2023-03-17T07:17:12.776Z,4.65
2023-03-17T07:19:39.828Z,4.90
2023-03-17T07:22:07.061Z,4.63
2023-03-17T07:24:34.454Z,4.97
2023-03-17T07:27:00.915Z,4.93
2023-03-17T07:29:29.115Z,4.97
2023-03-17T07:31:56.043Z,5.32
2023-03-17T07:34:23.678Z,4.50
2023-03-17T07:36:50.554Z,4.72
2023-03-17T07:39:17.312Z,4.80
2023-03-17T07:41:44.231Z,4.80
2023-03-17T07:44:11.708Z,4.60
2023-03-17T07:46:39.160Z,4.80
2023-03-17T07:49:06.224Z,5.05
2023-03-17T07:51:32.954Z,4.85
2023-03-17T07:54:04.220Z,5.00
2023-03-17T07:56:32.104Z,5.07
2023-03-17T07:58:59.214Z,5.50
2023-03-17T08:01:27.119Z,5.72
2023-03-17T08:03:54.379Z,5.97
2023-03-17T08:06:21.618Z,5.60
2023-03-17T08:08:48.774Z,5.50
2023-03-17T08:11:16.779Z,6.15
2023-03-17T08:13:43.328Z,5.65
2023-03-17T08:16:11.334Z,5.85
2023-03-17T08:18:38.065Z,6.20
2023-03-17T08:21:05.181Z,5.50
2023-03-17T08:23:32.761Z,6.38
2023-03-17T08:26:02.181Z,5.72
2023-03-17T08:28:29.591Z,6.95
2023-03-17T08:31:17.470Z,6.43
2023-03-17T08:33:48.429Z,5.95
2023-03-17T08:36:16.632Z,5.95
2023-03-17T08:38:45.206Z,5.65
2023-03-17T08:41:15.573Z,6.20
2023-03-17T08:43:44.012Z,6.47
2023-03-17T08:46:18.035Z,7.10
2023-03-17T08:48:46.714Z,7.10
2023-03-17T08:51:13.653Z,8.07
2023-03-17T08:53:40.925Z,6.05
2023-03-17T08:56:08.389Z,6.22
2023-03-17T08:58:37.591Z,6.22
2023-03-17T09:01:05.251Z,5.85
2023-03-17T09:03:33.648Z,6.10
2023-03-17T09:06:00.368Z,6.55
2023-03-17T09:08:28.289Z,5.95
2023-03-17T09:10:54.703Z,5.93
2023-03-17T09:13:21.948Z,5.95
2023-03-17T09:15:51.745Z,5.18
2023-03-17T09:18:21.949Z,5.57
2023-03-17T09:20:48.707Z,7.40
2023-03-17T09:23:15.894Z,5.53
2023-03-17T09:25:43.256Z,5.68
2023-03-17T09:28:12.525Z,5.47
2023-03-17T09:30:42.864Z,6.38
2023-03-17T09:33:10.763Z,5.90
2023-03-17T09:35:38.372Z,5.90
2023-03-17T09:38:05.405Z,6.43
2023-03-17T09:41:00.366Z,5.70
2023-03-17T09:43:43.369Z,5.40
2023-03-17T09:46:37.840Z,4.60
2023-03-17T09:49:14.172Z,5.83
2023-03-17T09:51:43.247Z,7.10
2023-03-17T09:54:27.964Z,6.07
2023-03-17T09:57:12.316Z,5.35
2023-03-17T09:59:42.169Z,5.28
2023-03-17T10:02:28.570Z,5.18
2023-03-17T10:04:56.380Z,6.00
2023-03-17T10:07:36.640Z,6.22
2023-03-17T10:10:09.241Z,6.97
2023-03-17T10:12:52.154Z,4.97
2023-03-17T10:15:28.163Z,5.03
2023-03-17T10:17:55.032Z,5.30
2023-03-17T10:20:27.344Z,5.00
2023-03-17T10:23:02.277Z,5.47
2023-03-17T10:25:33.005Z,5.03
2023-03-17T10:28:02.638Z,4.95
2023-03-17T10:30:33.563Z,4.60
2023-03-17T10:33:03.732Z,4.93
2023-03-17T10:35:35.942Z,5.45
2023-03-17T10:38:23.846Z,5.07
2023-03-17T10:40:59.524Z,5.15
2023-03-17T10:43:36.907Z,5.20
2023-03-17T10:46:05.907Z,5.22
2023-03-17T10:48:37.701Z,5.07
2023-03-17T10:51:11.606Z,5.07
2023-03-17T10:53:43.619Z,5.70
2023-03-17T10:56:25.000Z,4.75
2023-03-17T10:58:53.879Z,5.00
2023-03-17T11:01:38.514Z,4.88
2023-03-17T11:04:29.915Z,5.60
2023-03-17T11:06:58.601Z,5.95
2023-03-17T11:09:29.170Z,6.32
2023-03-17T11:12:09.074Z,5.55
2023-03-17T11:14:35.722Z,5.97
2023-03-17T11:17:16.342Z,6.70
2023-03-17T11:19:56.132Z,7.20
2023-03-17T11:22:40.177Z,6.50
2023-03-17T11:25:19.720Z,6.77
2023-03-17T11:28:16.155Z,6.35
2023-03-17T11:30:59.223Z,6.35
2023-03-17T11:33:47.069Z,6.88
2023-03-17T11:36:43.559Z,6.60
2023-03-17T11:39:22.860Z,6.78
2023-03-17T11:42:06.304Z,7.07
2023-03-17T11:44:51.694Z,6.18
2023-03-17T11:47:32.209Z,6.88
2023-03-17T11:50:23.685Z,6.93
2023-03-17T11:52:56.716Z,7.10
2023-03-17T11:55:28.847Z,6.45
2023-03-17T11:58:05.223Z,6.80
2023-03-17T12:00:35.104Z,6.78
2023-03-17T12:03:04.717Z,6.90
2023-03-17T12:05:32.551Z,7.22
2023-03-17T12:08:13.289Z,7.40
2023-03-17T12:10:45.295Z,7.93
2023-03-17T12:13:43.933Z,6.68
2023-03-17T12:16:21.276Z,6.38
2023-03-17T12:19:09.999Z,7.07
2023-03-17T12:21:47.518Z,7.10
2023-03-17T12:25:11.229Z,6.00
2023-03-17T12:27:54.256Z,6.03
2023-03-17T12:30:28.451Z,6.78
2023-03-17T12:33:14.890Z,6.25
2023-03-17T12:35:47.580Z,7.00
2023-03-17T12:38:30.599Z,6.60
2023-03-17T12:41:15.741Z,6.95
2023-03-17T12:43:57.958Z,6.40
2023-03-17T12:46:34.344Z,6.35
2023-03-17T12:49:38.545Z,6.65
2023-03-17T12:52:30.200Z,5.07
2023-03-17T12:55:01.294Z,5.07
2023-03-17T12:57:32.326Z,6.10
2023-03-17T13:00:05.617Z,6.50
2023-03-17T13:02:38.752Z,5.85
2023-03-17T13:05:09.064Z,5.45
2023-03-17T13:07:56.861Z,6.00
2023-03-17T13:10:39.879Z,5.97
2023-03-17T13:13:49.516Z,5.68
2023-03-17T13:16:33.868Z,5.88
2023-03-17T13:19:31.404Z,5.60
2023-03-17T13:22:04.322Z,4.80
2023-03-17T13:24:52.216Z,5.65
2023-03-17T13:27:31.069Z,5.90
2023-03-17T13:29:58.384Z,5.72
2023-03-17T13:32:24.777Z,5.55
2023-03-17T13:34:53.867Z,5.20
2023-03-17T13:37:42.500Z,4.78
2023-03-17T13:40:21.402Z,6.53
2023-03-17T13:43:00.383Z,5.57
2023-03-17T13:45:39.356Z,5.32
2023-03-17T13:48:24.844Z,5.50
2023-03-17T13:51:08.795Z,5.43
2023-03-17T13:53:40.537Z,5.53
2023-03-17T13:56:36.099Z,5.38
2023-03-17T13:59:02.891Z,6.97
2023-03-17T14:01:43.876Z,5.68
2023-03-17T14:04:27.260Z,4.55
2023-03-17T14:06:58.248Z,4.60
2023-03-17T14:09:34.446Z,4.93
2023-03-17T14:12:15.930Z,5.38
2023-03-17T14:14:51.381Z,6.03
2023-03-17T14:17:28.817Z,5.22
2023-03-17T14:20:08.655Z,4.82
2023-03-17T14:22:45.601Z,4.72
2023-03-17T14:25:25.108Z,4.47
2023-03-17T14:27:54.115Z,5.50
2023-03-17T14:30:27.328Z,5.38
2023-03-17T14:33:15.139Z,4.70
2023-03-17T14:35:43.434Z,4.60
2023-03-17T14:38:31.171Z,5.28
2023-03-17T14:41:03.225Z,4.95
2023-03-17T14:43:30.333Z,5.05
2023-03-17T14:46:12.862Z,5.20
2023-03-17T14:48:42.808Z,4.40
2023-03-17T14:51:33.855Z,4.90
2023-03-17T14:54:01.844Z,4.97
2023-03-17T14:56:36.944Z,5.47
2023-03-17T14:59:29.750Z,4.75
2023-03-17T15:02:02.166Z,4.28
2023-03-17T15:04:31.511Z,5.13
2023-03-17T15:07:04.083Z,5.63
2023-03-17T15:09:33.472Z,4.63
2023-03-17T15:12:06.985Z,5.50
2023-03-17T15:14:40.105Z,5.22
2023-03-17T15:17:16.994Z,5.65
2023-03-17T15:19:46.479Z,5.70
2023-03-17T15:22:43.868Z,6.03
2023-03-17T15:25:34.484Z,4.82
2023-03-17T15:28:01.170Z,5.70
2023-03-17T15:30:37.446Z,4.90
2023-03-17T15:33:23.713Z,5.22
2023-03-17T15:35:50.529Z,4.80
2023-03-17T15:38:17.300Z,5.05
2023-03-17T15:40:44.140Z,4.90
2023-03-17T15:43:15.352Z,4.72
2023-03-17T15:45:43.811Z,4.82
2023-03-17T15:48:27.128Z,4.50
2023-03-17T15:50:55.429Z,4.18
2023-03-17T15:53:22.229Z,4.32
2023-03-17T15:55:48.980Z,4.05
2023-03-17T15:58:15.602Z,5.22
2023-03-17T16:00:42.709Z,4.93
2023-03-17T16:03:21.234Z,4.68
2023-03-17T16:05:47.864Z,5.43
2023-03-17T16:08:15.950Z,5.55
2023-03-17T16:10:43.059Z,5.43
2023-03-17T16:13:09.603Z,5.47
2023-03-17T16:15:42.018Z,5.30
2023-03-17T16:18:19.869Z,4.95
2023-03-17T16:20:49.254Z,4.32
2023-03-17T16:23:23.088Z,5.25
2023-03-17T16:25:50.176Z,6.63
2023-03-17T16:28:23.435Z,4.93
2023-03-17T16:30:51.449Z,3.90
2023-03-17T16:33:31.515Z,4.10
2023-03-17T16:36:00.074Z,3.67
2023-03-17T16:38:29.091Z,2.95
2023-03-17T16:40:59.923Z,2.92
2023-03-17T16:43:32.091Z,3.33
2023-03-17T16:46:01.537Z,3.35
2023-03-17T16:48:28.374Z,3.35
2023-03-17T16:50:55.698Z,3.55
2023-03-17T16:53:23.481Z,4.63
2023-03-17T16:55:52.022Z,3.50
2023-03-17T16:58:33.199Z,3.60
2023-03-17T17:01:02.668Z,3.67
2023-03-17T17:03:31.055Z,3.10
2023-03-17T17:05:57.811Z,3.55
2023-03-17T17:08:24.382Z,3.58
2023-03-17T17:10:51.661Z,2.80
2023-03-17T17:13:18.627Z,2.95
2023-03-17T17:15:45.432Z,4.18
2023-03-17T17:18:16.310Z,3.65
2023-03-17T17:20:43.768Z,3.67
2023-03-17T17:23:13.157Z,4.22
2023-03-17T17:25:39.871Z,3.50
2023-03-17T17:28:06.790Z,3.45
2023-03-17T17:30:34.005Z,3.47
2023-03-17T17:33:02.008Z,3.63
2023-03-17T17:35:32.808Z,3.28
2023-03-17T17:38:00.570Z,3.80
2023-03-17T17:40:27.385Z,3.17
2023-03-17T17:42:55.540Z,3.70
2023-03-17T17:45:22.034Z,3.95
2023-03-17T17:47:48.865Z,3.72
2023-03-17T17:50:28.208Z,4.15
2023-03-17T17:52:55.062Z,3.83
2023-03-17T17:55:21.526Z,3.33
2023-03-17T17:57:49.895Z,3.22
2023-03-17T18:00:17.901Z,3.50
2023-03-17T18:02:44.743Z,2.95
2023-03-17T18:05:15.747Z,2.78
2023-03-17T18:07:42.193Z,3.20
2023-03-17T18:10:16.912Z,3.33
2023-03-17T18:12:43.394Z,3.28
2023-03-17T18:15:10.187Z,3.20
2023-03-17T18:17:37.216Z,3.90
2023-03-17T18:20:03.843Z,3.17
2023-03-17T18:22:30.252Z,3.20
2023-03-17T18:24:57.137Z,3.70
2023-03-17T18:27:23.581Z,3.50
2023-03-17T18:29:50.296Z,3.70
2023-03-17T18:32:16.811Z,3.90
2023-03-17T18:34:46.204Z,4.03
2023-03-17T18:37:15.259Z,3.75
2023-03-17T18:39:42.975Z,4.75
2023-03-17T18:42:09.744Z,5.55
2023-03-17T18:44:37.053Z,5.88
2023-03-17T18:47:05.471Z,5.03
2023-03-17T18:49:31.946Z,4.40
2023-03-17T18:51:59.531Z,5.00
2023-03-17T18:54:28.185Z,4.63
2023-03-17T18:56:55.279Z,6.50
2023-03-17T18:59:21.807Z,10.82
2023-03-17T19:01:48.666Z,5.68
2023-03-17T19:04:15.584Z,5.72
2023-03-17T19:06:42.712Z,5.00
2023-03-17T19:09:10.933Z,4.72
2023-03-17T19:11:39.207Z,6.03
2023-03-17T19:14:07.172Z,5.00
2023-03-17T19:16:35.120Z,5.07
2023-03-17T19:19:02.629Z,5.28
2023-03-17T19:21:29.067Z,6.30
2023-03-17T19:24:00.119Z,5.45
2023-03-17T19:26:27.679Z,5.57
2023-03-17T19:28:56.249Z,7.45
2023-03-17T19:31:25.178Z,6.88
2023-03-17T19:33:51.946Z,11.82
2023-03-17T19:36:19.224Z,5.88
2023-03-17T19:38:46.127Z,5.60
2023-03-17T19:41:13.476Z,4.75
2023-03-17T19:43:41.606Z,4.50
2023-03-17T19:46:09.673Z,4.45
2023-03-17T19:48:37.300Z,3.72
2023-03-17T19:51:04.519Z,3.40
2023-03-17T19:53:31.637Z,3.08
2023-03-17T19:55:58.025Z,4.00
2023-03-17T19:58:24.538Z,3.67
2023-03-17T20:00:51.792Z,3.03
2023-03-17T20:03:18.396Z,3.75
2023-03-17T20:05:46.402Z,7.75
2023-03-17T20:08:14.210Z,11.32
2023-03-17T20:10:40.585Z,7.65
2023-03-17T20:13:07.083Z,10.00
2023-03-17T20:18:19.174Z,4.53
2023-03-17T20:20:50.954Z,5.28
2023-03-17T20:23:18.031Z,4.93
2023-03-17T20:25:44.818Z,4.22
2023-03-17T20:28:12.901Z,3.90
2023-03-17T20:30:39.834Z,3.70
2023-03-17T20:33:08.172Z,4.35
2023-03-17T20:35:35.180Z,11.57
2023-03-17T20:38:02.017Z,15.43
2023-03-17T20:40:28.667Z,11.55
2023-03-17T20:42:55.664Z,6.18
2023-03-17T20:45:22.093Z,4.82
2023-03-17T20:47:49.156Z,6.43
2023-03-17T20:50:16.762Z,3.67
2023-03-17T20:52:43.244Z,3.65
2023-03-17T20:55:13.892Z,4.38
2023-03-17T20:57:42.478Z,7.32
2023-03-17T21:00:17.958Z,6.30
2023-03-17T21:02:48.368Z,6.38
2023-03-17T21:05:17.936Z,4.90
2023-03-17T21:07:44.684Z,5.97
2023-03-17T21:10:12.139Z,6.57
2023-03-17T21:12:38.863Z,7.03
2023-03-17T21:15:06.376Z,6.75
2023-03-17T21:17:33.247Z,7.32
2023-03-17T21:19:59.919Z,7.22
2023-03-17T21:22:26.782Z,7.10
2023-03-17T21:24:53.648Z,6.55
2023-03-17T21:27:20.070Z,5.95
2023-03-17T21:29:48.005Z,5.80
2023-03-17T21:32:14.707Z,5.43
2023-03-17T21:34:41.513Z,5.57
2023-03-17T21:37:07.982Z,5.20
2023-03-17T21:39:36.520Z,5.80
2023-03-17T21:42:03.755Z,4.80
2023-03-17T21:44:32.284Z,5.15
2023-03-17T21:47:02.886Z,5.63
2023-03-17T21:49:29.421Z,4.97
2023-03-17T21:51:55.922Z,5.72
2023-03-17T21:54:22.915Z,5.68
2023-03-17T21:56:49.829Z,5.07
2023-03-17T21:59:18.432Z,5.25
2023-03-17T22:01:45.192Z,5.93
2023-03-17T22:04:12.559Z,5.50
2023-03-17T22:06:40.101Z,5.45
2023-03-17T22:09:07.050Z,5.60
2023-03-17T22:11:33.439Z,5.07
2023-03-17T22:13:59.874Z,4.43
2023-03-17T22:16:26.833Z,5.00
2023-03-17T22:18:53.338Z,4.72
2023-03-17T22:21:21.400Z,4.88
2023-03-17T22:23:48.532Z,4.95
2023-03-17T22:26:20.525Z,5.20
2023-03-17T22:28:49.730Z,4.50
2023-03-17T22:31:22.158Z,4.55
2023-03-17T22:33:50.933Z,4.53
2023-03-17T22:36:17.860Z,4.47
2023-03-17T22:38:45.905Z,4.47
2023-03-17T22:41:16.924Z,4.38
2023-03-17T22:43:43.565Z,4.70
2023-03-17T22:46:11.011Z,4.30
2023-03-17T22:48:38.174Z,4.55
2023-03-17T22:51:08.807Z,4.63
2023-03-17T22:53:36.534Z,3.92
2023-03-17T22:56:04.358Z,3.90
2023-03-17T22:58:31.319Z,4.50
2023-03-17T23:00:57.820Z,4.00
2023-03-17T23:03:26.589Z,4.65
2023-03-17T23:05:57.151Z,4.25
2023-03-17T23:08:25.075Z,4.15
2023-03-17T23:10:52.274Z,3.80
2023-03-17T23:13:19.964Z,4.07
2023-03-17T23:15:47.432Z,4.25
2023-03-17T23:18:14.028Z,4.20
2023-03-17T23:20:40.757Z,3.67
2023-03-17T23:23:08.365Z,5.35
2023-03-17T23:25:36.655Z,4.45
2023-03-17T23:28:03.852Z,4.15
2023-03-17T23:30:31.582Z,4.47
2023-03-17T23:32:58.857Z,4.07
2023-03-17T23:35:25.478Z,4.75
2023-03-17T23:37:51.966Z,4.60
2023-03-17T23:40:18.931Z,4.13
2023-03-17T23:42:48.755Z,3.95
2023-03-17T23:45:18.971Z,3.90
2023-03-17T23:47:47.095Z,3.95
2023-03-17T23:50:14.736Z,3.65
2023-03-17T23:52:42.871Z,4.00
2023-03-17T23:55:11.760Z,3.72
2023-03-17T23:57:39.131Z,4.20
